sensor_id;sensor_type;location;lat;lon;timestamp;P1;durP1;ratioP1;P2;durP2;ratioP2
12990;SDS011;6560;57.692;11.958;2023-12-29T00:02:23;41.90;;;6.70;;
12990;SDS011;6560;57.692;11.958;2023-12-29T00:04:49;40.63;;;8.00;;
12990;SDS011;6560;57.692;11.958;2023-12-29T00:07:15;39.50;;;7.43;;
12990;SDS011;6560;57.692;11.958;2023-12-29T00:09:40;44.17;;;8.73;;
12990;SDS011;6560;57.692;11.958;2023-12-29T00:12:06;40.53;;;6.73;;
12990;SDS011;6560;57.692;11.958;2023-12-29T00:14:32;34.93;;;5.63;;
12990;SDS011;6560;57.692;11.958;2023-12-29T00:16:58;26.00;;;6.27;;
12990;SDS011;6560;57.692;11.958;2023-12-29T00:19:24;27.73;;;6.77;;
12990;SDS011;6560;57.692;11.958;2023-12-29T00:21:50;41.67;;;6.13;;
12990;SDS011;6560;57.692;11.958;2023-12-29T00:24:15;28.33;;;5.33;;
12990;SDS011;6560;57.692;11.958;2023-12-29T00:26:42;29.03;;;6.10;;
12990;SDS011;6560;57.692;11.958;2023-12-29T00:29:07;29.77;;;5.50;;
12990;SDS011;6560;57.692;11.958;2023-12-29T00:31:33;22.27;;;4.70;;
12990;SDS011;6560;57.692;11.958;2023-12-29T00:33:59;24.30;;;4.73;;
12990;SDS011;6560;57.692;11.958;2023-12-29T00:36:24;23.87;;;5.40;;
12990;SDS011;6560;57.692;11.958;2023-12-29T00:38:50;26.40;;;4.40;;
12990;SDS011;6560;57.692;11.958;2023-12-29T00:41:15;24.83;;;5.47;;
12990;SDS011;6560;57.692;11.958;2023-12-29T00:43:41;31.17;;;4.73;;
12990;SDS011;6560;57.692;11.958;2023-12-29T00:46:07;15.97;;;4.17;;
12990;SDS011;6560;57.692;11.958;2023-12-29T00:48:33;25.90;;;5.07;;
12990;SDS011;6560;57.692;11.958;2023-12-29T00:51:02;20.77;;;4.73;;
12990;SDS011;6560;57.692;11.958;2023-12-29T00:53:29;26.43;;;4.33;;
12990;SDS011;6560;57.692;11.958;2023-12-29T00:55:56;25.90;;;4.63;;
12990;SDS011;6560;57.692;11.958;2023-12-29T00:58:22;27.07;;;6.37;;
12990;SDS011;6560;57.692;11.958;2023-12-29T01:00:47;25.20;;;4.87;;
12990;SDS011;6560;57.692;11.958;2023-12-29T01:03:13;21.03;;;4.37;;
12990;SDS011;6560;57.692;11.958;2023-12-29T01:05:38;32.27;;;5.00;;
12990;SDS011;6560;57.692;11.958;2023-12-29T01:08:04;24.23;;;4.23;;
12990;SDS011;6560;57.692;11.958;2023-12-29T01:10:29;25.87;;;4.70;;
12990;SDS011;6560;57.692;11.958;2023-12-29T01:12:55;29.67;;;5.50;;
12990;SDS011;6560;57.692;11.958;2023-12-29T01:15:20;20.97;;;5.13;;
12990;SDS011;6560;57.692;11.958;2023-12-29T01:17:46;28.20;;;4.87;;
12990;SDS011;6560;57.692;11.958;2023-12-29T01:20:12;26.63;;;5.63;;
12990;SDS011;6560;57.692;11.958;2023-12-29T01:22:37;20.17;;;3.97;;
12990;SDS011;6560;57.692;11.958;2023-12-29T01:25:03;29.57;;;5.73;;
12990;SDS011;6560;57.692;11.958;2023-12-29T01:27:28;23.00;;;4.97;;
12990;SDS011;6560;57.692;11.958;2023-12-29T01:29:54;30.03;;;6.50;;
12990;SDS011;6560;57.692;11.958;2023-12-29T01:32:19;22.07;;;4.67;;
12990;SDS011;6560;57.692;11.958;2023-12-29T01:34:46;30.63;;;5.50;;
12990;SDS011;6560;57.692;11.958;2023-12-29T01:37:11;24.07;;;4.77;;
12990;SDS011;6560;57.692;11.958;2023-12-29T01:39:36;25.83;;;4.83;;
12990;SDS011;6560;57.692;11.958;2023-12-29T01:42:02;18.50;;;4.63;;
12990;SDS011;6560;57.692;11.958;2023-12-29T01:44:28;25.67;;;4.80;;
12990;SDS011;6560;57.692;11.958;2023-12-29T01:46:54;29.07;;;4.83;;
12990;SDS011;6560;57.692;11.958;2023-12-29T01:49:21;28.37;;;5.93;;
12990;SDS011;6560;57.692;11.958;2023-12-29T01:51:52;25.73;;;5.03;;
12990;SDS011;6560;57.692;11.958;2023-12-29T01:54:23;36.03;;;5.47;;
12990;SDS011;6560;57.692;11.958;2023-12-29T01:56:58;26.53;;;5.07;;
12990;SDS011;6560;57.692;11.958;2023-12-29T01:59:25;30.67;;;5.50;;
12990;SDS011;6560;57.692;11.958;2023-12-29T02:01:53;31.63;;;6.80;;
12990;SDS011;6560;57.692;11.958;2023-12-29T02:04:20;27.70;;;4.93;;
12990;SDS011;6560;57.692;11.958;2023-12-29T02:06:49;31.47;;;5.70;;
12990;SDS011;6560;57.692;11.958;2023-12-29T02:09:14;28.77;;;5.70;;
12990;SDS011;6560;57.692;11.958;2023-12-29T02:11:42;26.67;;;6.20;;
12990;SDS011;6560;57.692;11.958;2023-12-29T02:14:07;37.03;;;6.20;;
12990;SDS011;6560;57.692;11.958;2023-12-29T02:17:17;31.53;;;6.07;;
12990;SDS011;6560;57.692;11.958;2023-12-29T02:22:09;32.50;;;6.10;;
12990;SDS011;6560;57.692;11.958;2023-12-29T02:24:35;24.83;;;6.07;;
12990;SDS011;6560;57.692;11.958;2023-12-29T02:29:56;35.57;;;6.50;;
12990;SDS011;6560;57.692;11.958;2023-12-29T02:32:31;40.37;;;7.37;;
12990;SDS011;6560;57.692;11.958;2023-12-29T02:35:00;47.37;;;7.20;;
12990;SDS011;6560;57.692;11.958;2023-12-29T02:37:27;36.93;;;6.00;;
12990;SDS011;6560;57.692;11.958;2023-12-29T02:39:55;37.27;;;6.47;;
12990;SDS011;6560;57.692;11.958;2023-12-29T02:42:22;40.20;;;8.07;;
12990;SDS011;6560;57.692;11.958;2023-12-29T02:44:47;39.57;;;6.90;;
12990;SDS011;6560;57.692;11.958;2023-12-29T02:47:13;33.17;;;6.17;;
12990;SDS011;6560;57.692;11.958;2023-12-29T02:49:38;47.27;;;7.90;;
12990;SDS011;6560;57.692;11.958;2023-12-29T02:52:04;32.87;;;6.47;;
12990;SDS011;6560;57.692;11.958;2023-12-29T02:54:30;34.83;;;6.17;;
12990;SDS011;6560;57.692;11.958;2023-12-29T02:56:55;37.53;;;8.20;;
12990;SDS011;6560;57.692;11.958;2023-12-29T02:59:21;35.73;;;7.30;;
12990;SDS011;6560;57.692;11.958;2023-12-29T03:01:46;30.47;;;8.17;;
12990;SDS011;6560;57.692;11.958;2023-12-29T03:04:12;32.80;;;6.60;;
12990;SDS011;6560;57.692;11.958;2023-12-29T03:06:37;52.27;;;8.87;;
12990;SDS011;6560;57.692;11.958;2023-12-29T03:09:03;43.90;;;8.13;;
12990;SDS011;6560;57.692;11.958;2023-12-29T03:11:28;43.10;;;7.97;;
12990;SDS011;6560;57.692;11.958;2023-12-29T03:13:54;35.83;;;8.10;;
12990;SDS011;6560;57.692;11.958;2023-12-29T03:16:19;38.20;;;8.97;;
12990;SDS011;6560;57.692;11.958;2023-12-29T03:18:45;30.13;;;5.50;;
12990;SDS011;6560;57.692;11.958;2023-12-29T03:21:10;42.00;;;7.33;;
12990;SDS011;6560;57.692;11.958;2023-12-29T03:23:36;28.37;;;6.97;;
12990;SDS011;6560;57.692;11.958;2023-12-29T03:26:01;37.83;;;6.20;;
12990;SDS011;6560;57.692;11.958;2023-12-29T03:28:27;40.37;;;7.43;;
12990;SDS011;6560;57.692;11.958;2023-12-29T03:30:53;39.67;;;7.77;;
12990;SDS011;6560;57.692;11.958;2023-12-29T03:33:18;34.10;;;7.10;;
12990;SDS011;6560;57.692;11.958;2023-12-29T03:35:44;40.40;;;7.33;;
12990;SDS011;6560;57.692;11.958;2023-12-29T03:38:09;44.73;;;7.30;;
12990;SDS011;6560;57.692;11.958;2023-12-29T03:40:34;32.90;;;6.77;;
12990;SDS011;6560;57.692;11.958;2023-12-29T03:43:00;45.43;;;7.87;;
12990;SDS011;6560;57.692;11.958;2023-12-29T03:45:25;40.90;;;7.77;;
12990;SDS011;6560;57.692;11.958;2023-12-29T03:47:51;41.67;;;7.80;;
12990;SDS011;6560;57.692;11.958;2023-12-29T03:50:16;39.57;;;7.00;;
12990;SDS011;6560;57.692;11.958;2023-12-29T03:52:41;31.83;;;8.90;;
12990;SDS011;6560;57.692;11.958;2023-12-29T03:55:07;51.90;;;8.93;;
12990;SDS011;6560;57.692;11.958;2023-12-29T03:57:33;44.17;;;8.50;;
12990;SDS011;6560;57.692;11.958;2023-12-29T03:59:58;37.63;;;7.87;;
12990;SDS011;6560;57.692;11.958;2023-12-29T04:02:24;42.47;;;7.17;;
12990;SDS011;6560;57.692;11.958;2023-12-29T04:04:49;38.67;;;9.50;;
12990;SDS011;6560;57.692;11.958;2023-12-29T04:07:15;40.63;;;8.07;;
12990;SDS011;6560;57.692;11.958;2023-12-29T04:09:40;37.87;;;8.20;;
12990;SDS011;6560;57.692;11.958;2023-12-29T04:12:06;64.57;;;8.37;;
12990;SDS011;6560;57.692;11.958;2023-12-29T04:14:31;44.83;;;9.97;;
12990;SDS011;6560;57.692;11.958;2023-12-29T04:16:57;37.37;;;9.17;;
12990;SDS011;6560;57.692;11.958;2023-12-29T04:19:22;35.70;;;7.87;;
12990;SDS011;6560;57.692;11.958;2023-12-29T04:21:47;34.17;;;6.13;;
12990;SDS011;6560;57.692;11.958;2023-12-29T04:24:13;41.73;;;8.07;;
12990;SDS011;6560;57.692;11.958;2023-12-29T04:26:39;43.37;;;8.20;;
12990;SDS011;6560;57.692;11.958;2023-12-29T04:29:04;33.60;;;6.80;;
12990;SDS011;6560;57.692;11.958;2023-12-29T04:31:30;45.63;;;7.50;;
12990;SDS011;6560;57.692;11.958;2023-12-29T04:33:55;50.93;;;7.33;;
12990;SDS011;6560;57.692;11.958;2023-12-29T04:36:20;45.57;;;7.50;;
12990;SDS011;6560;57.692;11.958;2023-12-29T04:38:46;50.63;;;9.07;;
12990;SDS011;6560;57.692;11.958;2023-12-29T04:41:12;31.33;;;6.67;;
12990;SDS011;6560;57.692;11.958;2023-12-29T04:43:38;34.37;;;7.73;;
12990;SDS011;6560;57.692;11.958;2023-12-29T04:46:03;41.40;;;7.67;;
12990;SDS011;6560;57.692;11.958;2023-12-29T04:48:29;37.27;;;6.57;;
12990;SDS011;6560;57.692;11.958;2023-12-29T04:50:54;47.70;;;7.40;;
12990;SDS011;6560;57.692;11.958;2023-12-29T04:53:20;39.83;;;7.87;;
12990;SDS011;6560;57.692;11.958;2023-12-29T04:55:46;31.07;;;6.77;;
12990;SDS011;6560;57.692;11.958;2023-12-29T04:58:11;38.30;;;6.60;;
12990;SDS011;6560;57.692;11.958;2023-12-29T05:00:36;44.37;;;8.50;;
12990;SDS011;6560;57.692;11.958;2023-12-29T05:03:02;46.47;;;7.63;;
12990;SDS011;6560;57.692;11.958;2023-12-29T05:05:28;35.40;;;7.17;;
12990;SDS011;6560;57.692;11.958;2023-12-29T05:07:53;44.73;;;7.07;;
12990;SDS011;6560;57.692;11.958;2023-12-29T05:10:19;31.70;;;6.10;;
12990;SDS011;6560;57.692;11.958;2023-12-29T05:12:44;41.67;;;8.23;;
12990;SDS011;6560;57.692;11.958;2023-12-29T05:15:10;36.03;;;7.53;;
12990;SDS011;6560;57.692;11.958;2023-12-29T05:17:35;38.47;;;8.07;;
12990;SDS011;6560;57.692;11.958;2023-12-29T05:20:01;35.13;;;6.47;;
12990;SDS011;6560;57.692;11.958;2023-12-29T05:22:26;30.90;;;6.57;;
12990;SDS011;6560;57.692;11.958;2023-12-29T05:24:52;37.73;;;7.43;;
12990;SDS011;6560;57.692;11.958;2023-12-29T05:27:18;38.20;;;6.13;;
12990;SDS011;6560;57.692;11.958;2023-12-29T05:29:43;37.27;;;7.40;;
12990;SDS011;6560;57.692;11.958;2023-12-29T05:32:09;37.37;;;7.13;;
12990;SDS011;6560;57.692;11.958;2023-12-29T05:34:34;34.50;;;7.80;;
12990;SDS011;6560;57.692;11.958;2023-12-29T05:37:00;40.83;;;6.83;;
12990;SDS011;6560;57.692;11.958;2023-12-29T05:39:25;34.17;;;6.20;;
12990;SDS011;6560;57.692;11.958;2023-12-29T05:41:51;29.20;;;7.17;;
12990;SDS011;6560;57.692;11.958;2023-12-29T05:44:16;35.23;;;6.77;;
12990;SDS011;6560;57.692;11.958;2023-12-29T05:46:45;26.13;;;6.80;;
12990;SDS011;6560;57.692;11.958;2023-12-29T05:49:11;32.13;;;6.57;;
12990;SDS011;6560;57.692;11.958;2023-12-29T05:51:37;38.00;;;7.37;;
12990;SDS011;6560;57.692;11.958;2023-12-29T05:54:03;34.57;;;6.30;;
12990;SDS011;6560;57.692;11.958;2023-12-29T05:56:28;29.90;;;6.80;;
12990;SDS011;6560;57.692;11.958;2023-12-29T05:58:54;23.00;;;4.67;;
12990;SDS011;6560;57.692;11.958;2023-12-29T06:01:19;41.70;;;8.13;;
12990;SDS011;6560;57.692;11.958;2023-12-29T06:03:45;36.73;;;7.07;;
12990;SDS011;6560;57.692;11.958;2023-12-29T06:06:10;30.80;;;6.37;;
12990;SDS011;6560;57.692;11.958;2023-12-29T06:08:36;38.50;;;7.17;;
12990;SDS011;6560;57.692;11.958;2023-12-29T06:11:02;44.97;;;6.93;;
12990;SDS011;6560;57.692;11.958;2023-12-29T06:13:28;36.50;;;6.57;;
12990;SDS011;6560;57.692;11.958;2023-12-29T06:15:54;40.43;;;7.83;;
12990;SDS011;6560;57.692;11.958;2023-12-29T06:18:19;34.97;;;6.10;;
12990;SDS011;6560;57.692;11.958;2023-12-29T06:20:45;29.67;;;7.30;;
12990;SDS011;6560;57.692;11.958;2023-12-29T06:23:10;33.57;;;6.60;;
12990;SDS011;6560;57.692;11.958;2023-12-29T06:25:36;35.53;;;7.10;;
12990;SDS011;6560;57.692;11.958;2023-12-29T06:28:02;39.60;;;6.53;;
12990;SDS011;6560;57.692;11.958;2023-12-29T06:30:29;30.13;;;5.37;;
12990;SDS011;6560;57.692;11.958;2023-12-29T06:32:55;38.53;;;6.90;;
12990;SDS011;6560;57.692;11.958;2023-12-29T06:35:20;24.07;;;5.57;;
12990;SDS011;6560;57.692;11.958;2023-12-29T06:37:45;35.67;;;7.17;;
12990;SDS011;6560;57.692;11.958;2023-12-29T06:40:11;44.70;;;6.97;;
12990;SDS011;6560;57.692;11.958;2023-12-29T06:42:37;39.80;;;6.67;;
12990;SDS011;6560;57.692;11.958;2023-12-29T06:45:03;38.27;;;8.10;;
12990;SDS011;6560;57.692;11.958;2023-12-29T06:47:29;32.90;;;6.33;;
12990;SDS011;6560;57.692;11.958;2023-12-29T06:49:56;29.07;;;7.97;;
12990;SDS011;6560;57.692;11.958;2023-12-29T06:52:22;44.50;;;6.87;;
12990;SDS011;6560;57.692;11.958;2023-12-29T06:54:47;42.80;;;7.93;;
12990;SDS011;6560;57.692;11.958;2023-12-29T06:57:13;24.80;;;6.47;;
12990;SDS011;6560;57.692;11.958;2023-12-29T06:59:40;41.77;;;7.27;;
12990;SDS011;6560;57.692;11.958;2023-12-29T07:02:06;32.33;;;6.87;;
12990;SDS011;6560;57.692;11.958;2023-12-29T07:04:31;32.00;;;6.43;;
12990;SDS011;6560;57.692;11.958;2023-12-29T07:06:59;29.20;;;5.83;;
12990;SDS011;6560;57.692;11.958;2023-12-29T07:09:25;27.07;;;5.53;;
12990;SDS011;6560;57.692;11.958;2023-12-29T07:11:51;26.63;;;5.90;;
12990;SDS011;6560;57.692;11.958;2023-12-29T07:14:16;24.37;;;5.30;;
12990;SDS011;6560;57.692;11.958;2023-12-29T07:16:42;33.23;;;7.17;;
12990;SDS011;6560;57.692;11.958;2023-12-29T07:19:08;30.03;;;5.97;;
12990;SDS011;6560;57.692;11.958;2023-12-29T07:21:34;24.20;;;5.93;;
12990;SDS011;6560;57.692;11.958;2023-12-29T07:23:59;31.20;;;5.10;;
12990;SDS011;6560;57.692;11.958;2023-12-29T07:26:25;23.83;;;5.90;;
12990;SDS011;6560;57.692;11.958;2023-12-29T07:28:50;28.87;;;5.83;;
12990;SDS011;6560;57.692;11.958;2023-12-29T07:31:19;20.73;;;4.83;;
12990;SDS011;6560;57.692;11.958;2023-12-29T07:33:47;26.87;;;5.03;;
12990;SDS011;6560;57.692;11.958;2023-12-29T07:36:14;25.33;;;4.50;;
12990;SDS011;6560;57.692;11.958;2023-12-29T07:38:39;26.63;;;5.40;;
12990;SDS011;6560;57.692;11.958;2023-12-29T07:41:05;28.23;;;5.03;;
12990;SDS011;6560;57.692;11.958;2023-12-29T07:43:31;24.53;;;4.83;;
12990;SDS011;6560;57.692;11.958;2023-12-29T07:45:56;21.67;;;5.07;;
12990;SDS011;6560;57.692;11.958;2023-12-29T07:48:22;30.43;;;5.70;;
12990;SDS011;6560;57.692;11.958;2023-12-29T07:50:48;33.37;;;5.90;;
12990;SDS011;6560;57.692;11.958;2023-12-29T07:53:13;36.13;;;6.43;;
12990;SDS011;6560;57.692;11.958;2023-12-29T07:55:38;33.60;;;7.10;;
12990;SDS011;6560;57.692;11.958;2023-12-29T07:58:05;30.30;;;5.77;;
12990;SDS011;6560;57.692;11.958;2023-12-29T08:00:30;35.97;;;6.73;;
12990;SDS011;6560;57.692;11.958;2023-12-29T08:02:56;33.07;;;6.83;;
12990;SDS011;6560;57.692;11.958;2023-12-29T08:05:21;32.27;;;6.10;;
12990;SDS011;6560;57.692;11.958;2023-12-29T08:07:46;30.20;;;6.57;;
12990;SDS011;6560;57.692;11.958;2023-12-29T08:10:12;32.30;;;6.00;;
12990;SDS011;6560;57.692;11.958;2023-12-29T08:12:37;29.87;;;5.67;;
12990;SDS011;6560;57.692;11.958;2023-12-29T08:15:03;30.87;;;6.80;;
12990;SDS011;6560;57.692;11.958;2023-12-29T08:17:29;21.87;;;5.53;;
12990;SDS011;6560;57.692;11.958;2023-12-29T08:19:56;36.67;;;6.23;;
12990;SDS011;6560;57.692;11.958;2023-12-29T08:22:21;24.33;;;4.90;;
12990;SDS011;6560;57.692;11.958;2023-12-29T08:24:48;22.67;;;5.23;;
12990;SDS011;6560;57.692;11.958;2023-12-29T08:27:14;27.33;;;5.67;;
12990;SDS011;6560;57.692;11.958;2023-12-29T08:29:39;28.23;;;5.70;;
12990;SDS011;6560;57.692;11.958;2023-12-29T08:32:06;31.93;;;6.37;;
12990;SDS011;6560;57.692;11.958;2023-12-29T08:34:32;31.67;;;5.83;;
12990;SDS011;6560;57.692;11.958;2023-12-29T08:36:59;35.10;;;5.93;;
12990;SDS011;6560;57.692;11.958;2023-12-29T08:39:25;37.10;;;6.27;;
12990;SDS011;6560;57.692;11.958;2023-12-29T08:41:51;37.53;;;7.57;;
12990;SDS011;6560;57.692;11.958;2023-12-29T08:44:17;40.10;;;6.23;;
12990;SDS011;6560;57.692;11.958;2023-12-29T08:46:42;26.17;;;6.00;;
12990;SDS011;6560;57.692;11.958;2023-12-29T08:49:08;40.77;;;7.53;;
12990;SDS011;6560;57.692;11.958;2023-12-29T08:51:33;27.47;;;5.20;;
12990;SDS011;6560;57.692;11.958;2023-12-29T08:54:01;22.97;;;5.20;;
12990;SDS011;6560;57.692;11.958;2023-12-29T08:56:27;36.60;;;5.67;;
12990;SDS011;6560;57.692;11.958;2023-12-29T08:58:54;28.80;;;6.73;;
12990;SDS011;6560;57.692;11.958;2023-12-29T09:01:19;33.77;;;6.20;;
12990;SDS011;6560;57.692;11.958;2023-12-29T09:03:45;30.97;;;5.87;;
12990;SDS011;6560;57.692;11.958;2023-12-29T09:06:10;28.73;;;5.63;;
12990;SDS011;6560;57.692;11.958;2023-12-29T09:08:36;20.00;;;4.67;;
12990;SDS011;6560;57.692;11.958;2023-12-29T09:11:02;28.93;;;5.90;;
12990;SDS011;6560;57.692;11.958;2023-12-29T09:13:27;23.13;;;4.40;;
12990;SDS011;6560;57.692;11.958;2023-12-29T09:15:54;29.10;;;4.37;;
12990;SDS011;6560;57.692;11.958;2023-12-29T09:18:20;27.23;;;4.60;;
12990;SDS011;6560;57.692;11.958;2023-12-29T09:20:45;21.40;;;4.20;;
12990;SDS011;6560;57.692;11.958;2023-12-29T09:23:11;25.83;;;5.40;;
12990;SDS011;6560;57.692;11.958;2023-12-29T09:25:36;23.63;;;5.00;;
12990;SDS011;6560;57.692;11.958;2023-12-29T09:28:02;26.77;;;5.17;;
12990;SDS011;6560;57.692;11.958;2023-12-29T09:30:28;29.27;;;5.67;;
12990;SDS011;6560;57.692;11.958;2023-12-29T09:32:53;23.83;;;4.97;;
12990;SDS011;6560;57.692;11.958;2023-12-29T09:35:18;21.63;;;5.00;;
12990;SDS011;6560;57.692;11.958;2023-12-29T09:37:47;24.10;;;4.43;;
12990;SDS011;6560;57.692;11.958;2023-12-29T09:40:13;19.43;;;3.93;;
12990;SDS011;6560;57.692;11.958;2023-12-29T09:42:40;35.80;;;5.00;;
12990;SDS011;6560;57.692;11.958;2023-12-29T09:45:07;27.00;;;4.77;;
12990;SDS011;6560;57.692;11.958;2023-12-29T09:47:37;20.53;;;4.17;;
12990;SDS011;6560;57.692;11.958;2023-12-29T09:50:05;19.77;;;4.47;;
12990;SDS011;6560;57.692;11.958;2023-12-29T09:52:32;25.83;;;4.83;;
12990;SDS011;6560;57.692;11.958;2023-12-29T09:54:59;23.97;;;4.40;;
12990;SDS011;6560;57.692;11.958;2023-12-29T09:57:25;23.30;;;3.93;;
12990;SDS011;6560;57.692;11.958;2023-12-29T09:59:50;21.13;;;4.27;;
12990;SDS011;6560;57.692;11.958;2023-12-29T10:02:20;21.47;;;5.53;;
12990;SDS011;6560;57.692;11.958;2023-12-29T10:04:47;24.27;;;4.27;;
12990;SDS011;6560;57.692;11.958;2023-12-29T10:10:02;22.27;;;4.57;;
12990;SDS011;6560;57.692;11.958;2023-12-29T10:12:29;22.67;;;3.90;;
12990;SDS011;6560;57.692;11.958;2023-12-29T10:21:16;19.03;;;3.80;;
12990;SDS011;6560;57.692;11.958;2023-12-29T10:24:01;23.93;;;4.17;;
12990;SDS011;6560;57.692;11.958;2023-12-29T10:26:30;20.33;;;4.07;;
12990;SDS011;6560;57.692;11.958;2023-12-29T10:28:56;22.57;;;4.93;;
12990;SDS011;6560;57.692;11.958;2023-12-29T10:31:23;15.80;;;5.80;;
12990;SDS011;6560;57.692;11.958;2023-12-29T10:33:49;18.63;;;3.73;;
12990;SDS011;6560;57.692;11.958;2023-12-29T10:36:16;16.43;;;4.13;;
12990;SDS011;6560;57.692;11.958;2023-12-29T10:38:42;28.17;;;4.87;;
12990;SDS011;6560;57.692;11.958;2023-12-29T10:43:41;18.33;;;5.37;;
12990;SDS011;6560;57.692;11.958;2023-12-29T10:46:09;24.90;;;5.43;;
12990;SDS011;6560;57.692;11.958;2023-12-29T10:48:35;20.87;;;4.80;;
12990;SDS011;6560;57.692;11.958;2023-12-29T10:51:05;21.20;;;4.70;;
12990;SDS011;6560;57.692;11.958;2023-12-29T10:53:34;18.83;;;4.30;;
12990;SDS011;6560;57.692;11.958;2023-12-29T10:56:01;24.77;;;4.30;;
12990;SDS011;6560;57.692;11.958;2023-12-29T10:58:27;20.50;;;5.20;;
12990;SDS011;6560;57.692;11.958;2023-12-29T11:00:57;27.63;;;5.10;;
12990;SDS011;6560;57.692;11.958;2023-12-29T11:03:24;32.80;;;4.60;;
12990;SDS011;6560;57.692;11.958;2023-12-29T11:05:51;20.13;;;4.60;;
12990;SDS011;6560;57.692;11.958;2023-12-29T11:08:25;21.97;;;4.53;;
12990;SDS011;6560;57.692;11.958;2023-12-29T11:10:52;29.47;;;4.90;;
12990;SDS011;6560;57.692;11.958;2023-12-29T11:13:19;20.37;;;5.63;;
12990;SDS011;6560;57.692;11.958;2023-12-29T11:15:45;16.50;;;4.47;;
12990;SDS011;6560;57.692;11.958;2023-12-29T11:18:15;19.43;;;4.50;;
12990;SDS011;6560;57.692;11.958;2023-12-29T11:20:42;23.90;;;4.77;;
12990;SDS011;6560;57.692;11.958;2023-12-29T11:23:09;22.70;;;4.63;;
12990;SDS011;6560;57.692;11.958;2023-12-29T11:25:35;28.73;;;5.77;;
12990;SDS011;6560;57.692;11.958;2023-12-29T11:28:02;25.33;;;4.50;;
12990;SDS011;6560;57.692;11.958;2023-12-29T11:30:29;23.20;;;4.33;;
12990;SDS011;6560;57.692;11.958;2023-12-29T11:32:57;19.73;;;4.27;;
12990;SDS011;6560;57.692;11.958;2023-12-29T11:35:32;19.33;;;4.53;;
12990;SDS011;6560;57.692;11.958;2023-12-29T11:40:38;11.97;;;3.13;;
12990;SDS011;6560;57.692;11.958;2023-12-29T11:43:11;21.57;;;4.77;;
12990;SDS011;6560;57.692;11.958;2023-12-29T11:45:42;18.43;;;3.87;;
12990;SDS011;6560;57.692;11.958;2023-12-29T11:48:07;15.43;;;3.17;;
12990;SDS011;6560;57.692;11.958;2023-12-29T11:50:37;23.53;;;4.10;;
12990;SDS011;6560;57.692;11.958;2023-12-29T11:53:05;18.87;;;4.57;;
12990;SDS011;6560;57.692;11.958;2023-12-29T11:55:39;15.03;;;3.30;;
12990;SDS011;6560;57.692;11.958;2023-12-29T11:58:13;17.40;;;3.00;;
12990;SDS011;6560;57.692;11.958;2023-12-29T12:00:49;20.10;;;3.47;;
12990;SDS011;6560;57.692;11.958;2023-12-29T12:03:27;17.83;;;3.50;;
12990;SDS011;6560;57.692;11.958;2023-12-29T12:05:56;12.73;;;3.60;;
12990;SDS011;6560;57.692;11.958;2023-12-29T12:08:33;13.03;;;3.37;;
12990;SDS011;6560;57.692;11.958;2023-12-29T12:13:54;22.00;;;3.63;;
12990;SDS011;6560;57.692;11.958;2023-12-29T12:19:10;15.87;;;3.17;;
12990;SDS011;6560;57.692;11.958;2023-12-29T12:21:36;12.60;;;3.20;;
12990;SDS011;6560;57.692;11.958;2023-12-29T12:24:03;10.90;;;2.97;;
12990;SDS011;6560;57.692;11.958;2023-12-29T12:26:33;8.37;;;2.50;;
12990;SDS011;6560;57.692;11.958;2023-12-29T12:29:02;14.87;;;3.20;;
12990;SDS011;6560;57.692;11.958;2023-12-29T12:31:29;12.90;;;2.87;;
12990;SDS011;6560;57.692;11.958;2023-12-29T12:33:58;13.67;;;2.83;;
12990;SDS011;6560;57.692;11.958;2023-12-29T12:36:31;14.90;;;3.27;;
12990;SDS011;6560;57.692;11.958;2023-12-29T12:38:57;19.40;;;3.47;;
12990;SDS011;6560;57.692;11.958;2023-12-29T12:41:25;9.10;;;2.03;;
12990;SDS011;6560;57.692;11.958;2023-12-29T12:46:32;10.50;;;2.87;;
12990;SDS011;6560;57.692;11.958;2023-12-29T12:48:59;18.63;;;3.17;;
12990;SDS011;6560;57.692;11.958;2023-12-29T12:51:25;10.47;;;2.93;;
12990;SDS011;6560;57.692;11.958;2023-12-29T12:53:51;12.33;;;3.43;;
12990;SDS011;6560;57.692;11.958;2023-12-29T12:56:17;11.77;;;3.43;;
12990;SDS011;6560;57.692;11.958;2023-12-29T12:58:44;8.27;;;3.00;;
12990;SDS011;6560;57.692;11.958;2023-12-29T13:01:11;19.00;;;3.90;;
12990;SDS011;6560;57.692;11.958;2023-12-29T13:03:37;13.23;;;2.63;;
12990;SDS011;6560;57.692;11.958;2023-12-29T13:06:03;13.30;;;3.00;;
12990;SDS011;6560;57.692;11.958;2023-12-29T13:08:32;18.40;;;3.90;;
12990;SDS011;6560;57.692;11.958;2023-12-29T13:10:58;15.00;;;3.53;;
12990;SDS011;6560;57.692;11.958;2023-12-29T13:13:46;18.90;;;4.00;;
12990;SDS011;6560;57.692;11.958;2023-12-29T13:16:11;13.53;;;3.53;;
12990;SDS011;6560;57.692;11.958;2023-12-29T13:18:38;11.80;;;2.90;;
12990;SDS011;6560;57.692;11.958;2023-12-29T13:21:04;14.67;;;3.67;;
12990;SDS011;6560;57.692;11.958;2023-12-29T13:23:32;14.63;;;3.90;;
12990;SDS011;6560;57.692;11.958;2023-12-29T13:25:59;28.93;;;5.13;;
12990;SDS011;6560;57.692;11.958;2023-12-29T13:28:29;15.67;;;3.13;;
12990;SDS011;6560;57.692;11.958;2023-12-29T13:30:57;18.17;;;3.27;;
12990;SDS011;6560;57.692;11.958;2023-12-29T13:33:30;18.20;;;3.57;;
12990;SDS011;6560;57.692;11.958;2023-12-29T13:36:24;17.53;;;4.97;;
12990;SDS011;6560;57.692;11.958;2023-12-29T13:38:53;13.47;;;2.93;;
12990;SDS011;6560;57.692;11.958;2023-12-29T13:41:22;16.17;;;4.10;;
12990;SDS011;6560;57.692;11.958;2023-12-29T13:43:50;18.23;;;3.70;;
12990;SDS011;6560;57.692;11.958;2023-12-29T13:46:18;10.40;;;3.63;;
12990;SDS011;6560;57.692;11.958;2023-12-29T13:48:44;18.00;;;3.63;;
12990;SDS011;6560;57.692;11.958;2023-12-29T13:51:12;13.27;;;2.47;;
12990;SDS011;6560;57.692;11.958;2023-12-29T13:53:37;12.87;;;2.43;;
12990;SDS011;6560;57.692;11.958;2023-12-29T13:56:10;8.17;;;2.43;;
12990;SDS011;6560;57.692;11.958;2023-12-29T13:58:36;9.73;;;2.23;;
12990;SDS011;6560;57.692;11.958;2023-12-29T14:01:03;15.80;;;3.40;;
12990;SDS011;6560;57.692;11.958;2023-12-29T14:03:34;13.67;;;3.37;;
12990;SDS011;6560;57.692;11.958;2023-12-29T14:06:08;9.47;;;2.40;;
12990;SDS011;6560;57.692;11.958;2023-12-29T14:08:45;10.57;;;2.70;;
12990;SDS011;6560;57.692;11.958;2023-12-29T14:11:11;14.13;;;2.90;;
12990;SDS011;6560;57.692;11.958;2023-12-29T14:13:43;10.43;;;2.73;;
12990;SDS011;6560;57.692;11.958;2023-12-29T14:16:10;13.73;;;3.57;;
12990;SDS011;6560;57.692;11.958;2023-12-29T14:21:29;13.27;;;2.27;;
12990;SDS011;6560;57.692;11.958;2023-12-29T14:24:06;14.47;;;3.27;;
12990;SDS011;6560;57.692;11.958;2023-12-29T14:26:36;19.43;;;2.73;;
12990;SDS011;6560;57.692;11.958;2023-12-29T14:29:07;19.07;;;4.27;;
12990;SDS011;6560;57.692;11.958;2023-12-29T14:31:38;26.50;;;3.47;;
12990;SDS011;6560;57.692;11.958;2023-12-29T14:34:05;13.73;;;2.87;;
12990;SDS011;6560;57.692;11.958;2023-12-29T14:36:32;15.97;;;2.70;;
12990;SDS011;6560;57.692;11.958;2023-12-29T14:38:58;25.20;;;3.27;;
12990;SDS011;6560;57.692;11.958;2023-12-29T14:41:24;10.47;;;3.13;;
12990;SDS011;6560;57.692;11.958;2023-12-29T14:43:49;20.37;;;3.00;;
12990;SDS011;6560;57.692;11.958;2023-12-29T14:46:16;16.07;;;2.93;;
12990;SDS011;6560;57.692;11.958;2023-12-29T14:48:41;13.67;;;2.70;;
12990;SDS011;6560;57.692;11.958;2023-12-29T14:51:08;21.20;;;3.63;;
12990;SDS011;6560;57.692;11.958;2023-12-29T14:53:33;15.80;;;3.03;;
12990;SDS011;6560;57.692;11.958;2023-12-29T14:55:59;13.37;;;3.63;;
12990;SDS011;6560;57.692;11.958;2023-12-29T14:58:25;18.93;;;4.33;;
12990;SDS011;6560;57.692;11.958;2023-12-29T15:00:51;13.33;;;3.20;;
12990;SDS011;6560;57.692;11.958;2023-12-29T15:03:16;12.17;;;4.03;;
12990;SDS011;6560;57.692;11.958;2023-12-29T15:05:45;13.57;;;3.00;;